sensor_id;sensor_type;location;lat;lon;timestamp;temperature;humidity
50013;DHT22;35901;48.694;9.476;2022-09-20T00:01:25;7.60;99.90
50013;DHT22;35901;48.694;9.476;2022-09-20T00:03:54;7.60;99.90
50013;DHT22;35901;48.694;9.476;2022-09-20T00:06:23;7.70;99.90
50013;DHT22;35901;48.694;9.476;2022-09-20T00:08:50;7.60;99.90
50013;DHT22;35901;48.694;9.476;2022-09-20T00:11:18;7.70;99.90
50013;DHT22;35901;48.694;9.476;2022-09-20T00:13:46;7.70;99.90
50013;DHT22;35901;48.694;9.476;2022-09-20T00:16:18;7.70;99.90
50013;DHT22;35901;48.694;9.476;2022-09-20T00:18:48;7.70;99.90
50013;DHT22;35901;48.694;9.476;2022-09-20T00:21:16;7.70;99.90
50013;DHT22;35901;48.694;9.476;2022-09-20T00:23:41;7.60;99.90
50013;DHT22;35901;48.694;9.476;2022-09-20T00:26:07;7.60;99.90
50013;DHT22;35901;48.694;9.476;2022-09-20T00:28:33;7.60;99.90
50013;DHT22;35901;48.694;9.476;2022-09-20T00:31:00;7.60;99.90
50013;DHT22;35901;48.694;9.476;2022-09-20T00:33:26;7.50;99.90
50013;DHT22;35901;48.694;9.476;2022-09-20T00:36:12;7.50;99.90
50013;DHT22;35901;48.694;9.476;2022-09-20T00:38:37;7.50;99.90
50013;DHT22;35901;48.694;9.476;2022-09-20T00:41:03;7.50;99.90
50013;DHT22;35901;48.694;9.476;2022-09-20T00:43:55;7.60;99.90
50013;DHT22;35901;48.694;9.476;2022-09-20T00:46:22;7.60;99.90
50013;DHT22;35901;48.694;9.476;2022-09-20T00:48:50;7.60;99.90
50013;DHT22;35901;48.694;9.476;2022-09-20T00:51:24;7.60;99.90
50013;DHT22;35901;48.694;9.476;2022-09-20T00:53:54;7.60;99.90
50013;DHT22;35901;48.694;9.476;2022-09-20T00:56:26;7.60;99.90
50013;DHT22;35901;48.694;9.476;2022-09-20T01:01:29;7.60;99.90
50013;DHT22;35901;48.694;9.476;2022-09-20T01:03:56;7.60;99.90
50013;DHT22;35901;48.694;9.476;2022-09-20T01:06:23;7.70;99.90
50013;DHT22;35901;48.694;9.476;2022-09-20T01:08:50;7.70;99.90
50013;DHT22;35901;48.694;9.476;2022-09-20T01:11:19;7.70;99.90
50013;DHT22;35901;48.694;9.476;2022-09-20T01:13:44;7.70;99.90
50013;DHT22;35901;48.694;9.476;2022-09-20T01:16:11;7.70;99.90
50013;DHT22;35901;48.694;9.476;2022-09-20T01:18:40;7.70;99.90
50013;DHT22;35901;48.694;9.476;2022-09-20T01:21:07;7.70;99.90
50013;DHT22;35901;48.694;9.476;2022-09-20T01:31:34;7.60;99.90
50013;DHT22;35901;48.694;9.476;2022-09-20T01:34:10;7.60;99.90
50013;DHT22;35901;48.694;9.476;2022-09-20T01:36:43;7.60;99.90
50013;DHT22;35901;48.694;9.476;2022-09-20T01:44:44;7.60;99.90
50013;DHT22;35901;48.694;9.476;2022-09-20T01:59:10;7.60;99.90
50013;DHT22;35901;48.694;9.476;2022-09-20T02:02:06;7.60;99.90
50013;DHT22;35901;48.694;9.476;2022-09-20T02:10:34;7.60;99.90
50013;DHT22;35901;48.694;9.476;2022-09-20T02:13:10;7.60;99.90
50013;DHT22;35901;48.694;9.476;2022-09-20T02:16:11;7.50;99.90
50013;DHT22;35901;48.694;9.476;2022-09-20T02:22:03;7.50;99.90
50013;DHT22;35901;48.694;9.476;2022-09-20T02:24:54;7.50;99.90
50013;DHT22;35901;48.694;9.476;2022-09-20T02:27:46;7.50;99.90
50013;DHT22;35901;48.694;9.476;2022-09-20T02:30:45;7.50;99.90
50013;DHT22;35901;48.694;9.476;2022-09-20T02:38:52;7.40;99.90
50013;DHT22;35901;48.694;9.476;2022-09-20T02:44:06;7.40;99.90
50013;DHT22;35901;48.694;9.476;2022-09-20T02:46:54;7.40;99.90
50013;DHT22;35901;48.694;9.476;2022-09-20T02:52:10;7.30;99.90
50013;DHT22;35901;48.694;9.476;2022-09-20T02:57:44;7.30;99.90
50013;DHT22;35901;48.694;9.476;2022-09-20T03:00:23;7.30;99.90
50013;DHT22;35901;48.694;9.476;2022-09-20T03:03:16;7.30;99.90
50013;DHT22;35901;48.694;9.476;2022-09-20T03:06:08;7.30;99.90
50013;DHT22;35901;48.694;9.476;2022-09-20T03:08:46;7.30;99.90
50013;DHT22;35901;48.694;9.476;2022-09-20T03:11:36;7.30;99.90
50013;DHT22;35901;48.694;9.476;2022-09-20T03:14:35;7.30;99.90
50013;DHT22;35901;48.694;9.476;2022-09-20T03:20:25;7.30;99.90
50013;DHT22;35901;48.694;9.476;2022-09-20T03:25:49;7.20;99.90
50013;DHT22;35901;48.694;9.476;2022-09-20T03:34:18;7.30;99.90
50013;DHT22;35901;48.694;9.476;2022-09-20T03:37:02;7.30;99.90
50013;DHT22;35901;48.694;9.476;2022-09-20T03:39:47;7.30;99.90
50013;DHT22;35901;48.694;9.476;2022-09-20T03:42:23;7.30;99.90
50013;DHT22;35901;48.694;9.476;2022-09-20T03:51:03;7.30;99.90
50013;DHT22;35901;48.694;9.476;2022-09-20T03:57:02;7.30;99.90
50013;DHT22;35901;48.694;9.476;2022-09-20T03:59:46;7.30;99.90
50013;DHT22;35901;48.694;9.476;2022-09-20T04:05:01;7.30;99.90
50013;DHT22;35901;48.694;9.476;2022-09-20T04:08:24;7.20;99.90
50013;DHT22;35901;48.694;9.476;2022-09-20T04:13:56;7.10;99.90
50013;DHT22;35901;48.694;9.476;2022-09-20T04:16:48;7.10;99.90
50013;DHT22;35901;48.694;9.476;2022-09-20T04:22:02;7.10;99.90
50013;DHT22;35901;48.694;9.476;2022-09-20T04:27:03;7.00;99.90
50013;DHT22;35901;48.694;9.476;2022-09-20T04:29:50;7.00;99.90
50013;DHT22;35901;48.694;9.476;2022-09-20T04:35:29;7.00;99.90
50013;DHT22;35901;48.694;9.476;2022-09-20T04:38:18;7.00;99.90
50013;DHT22;35901;48.694;9.476;2022-09-20T04:43:59;7.10;99.90
50013;DHT22;35901;48.694;9.476;2022-09-20T04:46:39;7.10;99.90
50013;DHT22;35901;48.694;9.476;2022-09-20T05:03:52;7.10;99.90
50013;DHT22;35901;48.694;9.476;2022-09-20T05:14:44;7.10;99.90
50013;DHT22;35901;48.694;9.476;2022-09-20T05:17:43;7.10;99.90
50013;DHT22;35901;48.694;9.476;2022-09-20T05:26:13;7.00;99.90
50013;DHT22;35901;48.694;9.476;2022-09-20T05:34:51;7.00;99.90
50013;DHT22;35901;48.694;9.476;2022-09-20T05:40:17;7.00;99.90
50013;DHT22;35901;48.694;9.476;2022-09-20T05:43:19;7.00;99.90
50013;DHT22;35901;48.694;9.476;2022-09-20T05:46:16;7.00;99.90
50013;DHT22;35901;48.694;9.476;2022-09-20T05:48:58;7.10;99.90
50013;DHT22;35901;48.694;9.476;2022-09-20T06:02:39;7.10;99.90
50013;DHT22;35901;48.694;9.476;2022-09-20T06:08:06;7.10;99.90
50013;DHT22;35901;48.694;9.476;2022-09-20T06:16:01;7.20;99.90
50013;DHT22;35901;48.694;9.476;2022-09-20T06:21:18;7.30;99.90
50013;DHT22;35901;48.694;9.476;2022-09-20T06:23:48;7.30;99.90
50013;DHT22;35901;48.694;9.476;2022-09-20T06:26:19;7.30;99.90
50013;DHT22;35901;48.694;9.476;2022-09-20T06:28:59;7.40;99.90
50013;DHT22;35901;48.694;9.476;2022-09-20T06:31:26;7.40;99.90
50013;DHT22;35901;48.694;9.476;2022-09-20T06:36:29;7.50;99.90
50013;DHT22;35901;48.694;9.476;2022-09-20T06:42:18;7.70;99.90
50013;DHT22;35901;48.694;9.476;2022-09-20T06:44:43;7.90;99.90
50013;DHT22;35901;48.694;9.476;2022-09-20T06:47:10;8.10;99.90
50013;DHT22;35901;48.694;9.476;2022-09-20T06:49:36;8.30;99.90
50013;DHT22;35901;48.694;9.476;2022-09-20T06:52:06;8.60;99.90
50013;DHT22;35901;48.694;9.476;2022-09-20T06:54:32;9.20;99.90
50013;DHT22;35901;48.694;9.476;2022-09-20T06:57:01;9.80;99.90
50013;DHT22;35901;48.694;9.476;2022-09-20T06:59:27;10.40;99.90
50013;DHT22;35901;48.694;9.476;2022-09-20T07:01:53;10.40;99.90
50013;DHT22;35901;48.694;9.476;2022-09-20T07:04:19;10.20;99.90
50013;DHT22;35901;48.694;9.476;2022-09-20T07:06:46;10.00;99.90
50013;DHT22;35901;48.694;9.476;2022-09-20T07:09:12;9.90;99.90
50013;DHT22;35901;48.694;9.476;2022-09-20T07:11:38;9.90;99.90
50013;DHT22;35901;48.694;9.476;2022-09-20T07:14:03;9.80;99.90
50013;DHT22;35901;48.694;9.476;2022-09-20T07:16:32;9.70;99.90
50013;DHT22;35901;48.694;9.476;2022-09-20T07:18:58;10.00;99.90
50013;DHT22;35901;48.694;9.476;2022-09-20T07:21:24;10.20;99.90
50013;DHT22;35901;48.694;9.476;2022-09-20T07:23:50;10.10;99.90
50013;DHT22;35901;48.694;9.476;2022-09-20T07:26:26;10.00;99.90
50013;DHT22;35901;48.694;9.476;2022-09-20T07:28:53;10.10;99.90
50013;DHT22;35901;48.694;9.476;2022-09-20T07:31:21;10.10;99.90
50013;DHT22;35901;48.694;9.476;2022-09-20T07:33:47;10.00;99.90
50013;DHT22;35901;48.694;9.476;2022-09-20T07:36:14;9.90;99.90
50013;DHT22;35901;48.694;9.476;2022-09-20T07:38:41;9.90;99.90
50013;DHT22;35901;48.694;9.476;2022-09-20T07:41:08;10.10;99.90
50013;DHT22;35901;48.694;9.476;2022-09-20T07:43:34;10.30;99.90
50013;DHT22;35901;48.694;9.476;2022-09-20T07:46:01;10.40;99.90
50013;DHT22;35901;48.694;9.476;2022-09-20T07:48:30;10.30;99.90
50013;DHT22;35901;48.694;9.476;2022-09-20T07:51:00;10.30;99.90
50013;DHT22;35901;48.694;9.476;2022-09-20T07:53:27;10.10;99.90
50013;DHT22;35901;48.694;9.476;2022-09-20T07:56:10;10.60;99.90
50013;DHT22;35901;48.694;9.476;2022-09-20T07:58:36;11.50;99.90
50013;DHT22;35901;48.694;9.476;2022-09-20T08:01:07;11.70;99.90
50013;DHT22;35901;48.694;9.476;2022-09-20T08:03:34;12.00;99.90
50013;DHT22;35901;48.694;9.476;2022-09-20T08:06:02;12.20;99.90
50013;DHT22;35901;48.694;9.476;2022-09-20T08:08:31;12.60;99.90
50013;DHT22;35901;48.694;9.476;2022-09-20T08:11:05;13.00;99.90
50013;DHT22;35901;48.694;9.476;2022-09-20T08:13:41;13.10;99.90
50013;DHT22;35901;48.694;9.476;2022-09-20T08:16:09;12.70;99.90
50013;DHT22;35901;48.694;9.476;2022-09-20T08:18:36;12.30;99.90
50013;DHT22;35901;48.694;9.476;2022-09-20T08:21:06;11.80;99.90
50013;DHT22;35901;48.694;9.476;2022-09-20T08:23:50;11.40;99.90
50013;DHT22;35901;48.694;9.476;2022-09-20T08:26:20;11.60;99.90
50013;DHT22;35901;48.694;9.476;2022-09-20T08:28:50;12.30;99.90
50013;DHT22;35901;48.694;9.476;2022-09-20T08:31:18;12.80;99.90
50013;DHT22;35901;48.694;9.476;2022-09-20T08:33:45;13.10;99.90
50013;DHT22;35901;48.694;9.476;2022-09-20T08:36:14;13.60;99.90
50013;DHT22;35901;48.694;9.476;2022-09-20T08:38:41;14.20;99.90
50013;DHT22;35901;48.694;9.476;2022-09-20T08:46:22;14.20;99.90
50013;DHT22;35901;48.694;9.476;2022-09-20T08:48:49;14.30;99.90
50013;DHT22;35901;48.694;9.476;2022-09-20T08:51:16;14.40;99.90
50013;DHT22;35901;48.694;9.476;2022-09-20T08:53:53;14.50;99.90
50013;DHT22;35901;48.694;9.476;2022-09-20T08:56:25;14.80;99.90
50013;DHT22;35901;48.694;9.476;2022-09-20T08:58:52;15.20;99.90
50013;DHT22;35901;48.694;9.476;2022-09-20T09:01:23;15.50;99.90
50013;DHT22;35901;48.694;9.476;2022-09-20T09:03:51;15.70;99.90
50013;DHT22;35901;48.694;9.476;2022-09-20T09:06:20;15.40;99.90
50013;DHT22;35901;48.694;9.476;2022-09-20T09:08:48;14.90;98.90
50013;DHT22;35901;48.694;9.476;2022-09-20T09:11:18;14.20;99.70
50013;DHT22;35901;48.694;9.476;2022-09-20T09:13:53;13.80;99.90
50013;DHT22;35901;48.694;9.476;2022-09-20T09:16:23;13.50;99.90
50013;DHT22;35901;48.694;9.476;2022-09-20T09:18:49;13.20;99.90
50013;DHT22;35901;48.694;9.476;2022-09-20T09:21:22;13.00;99.90
50013;DHT22;35901;48.694;9.476;2022-09-20T09:24:06;12.80;99.90
50013;DHT22;35901;48.694;9.476;2022-09-20T09:26:39;13.00;99.90
50013;DHT22;35901;48.694;9.476;2022-09-20T09:31:45;13.70;99.90
50013;DHT22;35901;48.694;9.476;2022-09-20T09:34:23;13.80;99.90
50013;DHT22;35901;48.694;9.476;2022-09-20T09:36:50;13.90;98.70
50013;DHT22;35901;48.694;9.476;2022-09-20T09:39:26;13.80;98.50
50013;DHT22;35901;48.694;9.476;2022-09-20T09:41:52;13.50;98.00
50013;DHT22;35901;48.694;9.476;2022-09-20T09:44:20;13.40;98.50
50013;DHT22;35901;48.694;9.476;2022-09-20T09:46:46;13.20;98.70
50013;DHT22;35901;48.694;9.476;2022-09-20T09:49:20;13.20;99.10
50013;DHT22;35901;48.694;9.476;2022-09-20T09:52:08;13.20;99.10
50013;DHT22;35901;48.694;9.476;2022-09-20T09:54:39;13.40;99.20
50013;DHT22;35901;48.694;9.476;2022-09-20T10:07:54;13.70;96.50
50013;DHT22;35901;48.694;9.476;2022-09-20T10:21:59;13.50;95.70
50013;DHT22;35901;48.694;9.476;2022-09-20T10:30:02;14.00;95.10
50013;DHT22;35901;48.694;9.476;2022-09-20T10:38:16;14.00;94.50
50013;DHT22;35901;48.694;9.476;2022-09-20T10:46:37;14.50;93.90
50013;DHT22;35901;48.694;9.476;2022-09-20T10:52:14;15.70;93.00
50013;DHT22;35901;48.694;9.476;2022-09-20T11:08:26;14.90;90.40
50013;DHT22;35901;48.694;9.476;2022-09-20T11:10:57;14.90;90.10
50013;DHT22;35901;48.694;9.476;2022-09-20T11:16:32;14.70;87.60
50013;DHT22;35901;48.694;9.476;2022-09-20T11:22:11;14.60;87.20
50013;DHT22;35901;48.694;9.476;2022-09-20T11:27:27;15.00;89.20
50013;DHT22;35901;48.694;9.476;2022-09-20T11:30:16;15.10;87.80
50013;DHT22;35901;48.694;9.476;2022-09-20T11:33:39;14.90;86.50
50013;DHT22;35901;48.694;9.476;2022-09-20T11:36:00;14.50;86.50
50013;DHT22;35901;48.694;9.476;2022-09-20T11:38:37;14.20;86.40
50013;DHT22;35901;48.694;9.476;2022-09-20T11:41:29;14.10;87.20
50013;DHT22;35901;48.694;9.476;2022-09-20T11:44:04;14.00;88.00
50013;DHT22;35901;48.694;9.476;2022-09-20T11:46:39;14.00;88.30
50013;DHT22;35901;48.694;9.476;2022-09-20T11:57:25;14.00;89.10
50013;DHT22;35901;48.694;9.476;2022-09-20T11:59:59;13.80;88.20
50013;DHT22;35901;48.694;9.476;2022-09-20T12:02:39;14.10;89.40
50013;DHT22;35901;48.694;9.476;2022-09-20T12:05:07;14.80;87.40
50013;DHT22;35901;48.694;9.476;2022-09-20T12:07:52;15.20;87.50
50013;DHT22;35901;48.694;9.476;2022-09-20T12:10:22;15.80;88.10
50013;DHT22;35901;48.694;9.476;2022-09-20T12:13:03;16.30;84.20
50013;DHT22;35901;48.694;9.476;2022-09-20T12:15:39;16.60;84.50
50013;DHT22;35901;48.694;9.476;2022-09-20T12:18:12;17.10;84.70
50013;DHT22;35901;48.694;9.476;2022-09-20T12:28:50;18.10;80.90
50013;DHT22;35901;48.694;9.476;2022-09-20T12:36:39;17.10;80.10
50013;DHT22;35901;48.694;9.476;2022-09-20T13:08:53;14.80;81.10
50013;DHT22;35901;48.694;9.476;2022-09-20T13:11:23;15.10;81.90
50013;DHT22;35901;48.694;9.476;2022-09-20T13:19:19;15.90;81.30
50013;DHT22;35901;48.694;9.476;2022-09-20T13:24:25;15.40;82.00
50013;DHT22;35901;48.694;9.476;2022-09-20T13:26:53;15.30;82.40
50013;DHT22;35901;48.694;9.476;2022-09-20T13:29:25;15.10;83.20
50013;DHT22;35901;48.694;9.476;2022-09-20T13:31:54;15.10;83.40
50013;DHT22;35901;48.694;9.476;2022-09-20T13:34:24;15.00;83.60
50013;DHT22;35901;48.694;9.476;2022-09-20T13:36:54;14.90;83.90
50013;DHT22;35901;48.694;9.476;2022-09-20T13:39:34;14.90;85.30
50013;DHT22;35901;48.694;9.476;2022-09-20T13:42:06;14.90;84.60
50013;DHT22;35901;48.694;9.476;2022-09-20T13:44:34;14.90;83.70
50013;DHT22;35901;48.694;9.476;2022-09-20T13:47:00;14.90;83.80
50013;DHT22;35901;48.694;9.476;2022-09-20T13:49:30;15.00;83.90
50013;DHT22;35901;48.694;9.476;2022-09-20T13:51:56;15.10;83.70
50013;DHT22;35901;48.694;9.476;2022-09-20T13:54:30;15.10;82.60
50013;DHT22;35901;48.694;9.476;2022-09-20T13:57:05;15.20;83.20
50013;DHT22;35901;48.694;9.476;2022-09-20T13:59:44;15.30;83.10
50013;DHT22;35901;48.694;9.476;2022-09-20T14:02:26;15.50;84.70
50013;DHT22;35901;48.694;9.476;2022-09-20T14:04:55;15.50;84.10
50013;DHT22;35901;48.694;9.476;2022-09-20T14:07:22;15.40;85.30
50013;DHT22;35901;48.694;9.476;2022-09-20T14:09:51;15.50;86.40
50013;DHT22;35901;48.694;9.476;2022-09-20T14:12:17;15.90;84.50
50013;DHT22;35901;48.694;9.476;2022-09-20T14:14:44;15.80;83.80
50013;DHT22;35901;48.694;9.476;2022-09-20T14:17:12;15.40;84.00
50013;DHT22;35901;48.694;9.476;2022-09-20T14:19:41;15.00;85.30
50013;DHT22;35901;48.694;9.476;2022-09-20T14:22:25;14.60;86.50
50013;DHT22;35901;48.694;9.476;2022-09-20T14:27:24;13.90;88.20
50013;DHT22;35901;48.694;9.476;2022-09-20T14:29:51;13.70;88.60
50013;DHT22;35901;48.694;9.476;2022-09-20T14:39:54;13.60;88.90
50013;DHT22;35901;48.694;9.476;2022-09-20T14:45:00;13.90;89.30
50013;DHT22;35901;48.694;9.476;2022-09-20T14:47:36;13.90;89.00
50013;DHT22;35901;48.694;9.476;2022-09-20T14:53:31;13.90;88.80
50013;DHT22;35901;48.694;9.476;2022-09-20T14:58:21;13.80;88.80
50013;DHT22;35901;48.694;9.476;2022-09-20T15:00:59;13.80;88.50
50013;DHT22;35901;48.694;9.476;2022-09-20T15:03:32;13.70;89.40
50013;DHT22;35901;48.694;9.476;2022-09-20T15:05:58;13.80;90.00
50013;DHT22;35901;48.694;9.476;2022-09-20T15:08:24;13.70;89.80
50013;DHT22;35901;48.694;9.476;2022-09-20T15:10:50;13.80;90.30
50013;DHT22;35901;48.694;9.476;2022-09-20T15:13:16;13.60;90.40
50013;DHT22;35901;48.694;9.476;2022-09-20T15:15:42;13.40;90.60
50013;DHT22;35901;48.694;9.476;2022-09-20T15:18:25;13.30;90.60
50013;DHT22;35901;48.694;9.476;2022-09-20T15:20:54;13.20;90.90
50013;DHT22;35901;48.694;9.476;2022-09-20T15:23:20;13.10;91.10
50013;DHT22;35901;48.694;9.476;2022-09-20T15:25:50;13.10;91.40
50013;DHT22;35901;48.694;9.476;2022-09-20T15:28:17;13.00;91.50
50013;DHT22;35901;48.694;9.476;2022-09-20T15:30:44;13.00;91.60
50013;DHT22;35901;48.694;9.476;2022-09-20T15:33:13;13.00;91.70
50013;DHT22;35901;48.694;9.476;2022-09-20T15:35:40;13.00;91.80
50013;DHT22;35901;48.694;9.476;2022-09-20T15:38:06;12.90;91.80
50013;DHT22;35901;48.694;9.476;2022-09-20T15:40:40;12.90;92.00
50013;DHT22;35901;48.694;9.476;2022-09-20T15:43:07;12.90;92.30
50013;DHT22;35901;48.694;9.476;2022-09-20T15:45:34;12.80;92.30
50013;DHT22;35901;48.694;9.476;2022-09-20T15:48:00;12.80;92.60
50013;DHT22;35901;48.694;9.476;2022-09-20T15:50:27;12.70;92.60
50013;DHT22;35901;48.694;9.476;2022-09-20T15:52:53;12.70;93.00
50013;DHT22;35901;48.694;9.476;2022-09-20T15:55:20;12.60;92.70
50013;DHT22;35901;48.694;9.476;2022-09-20T15:57:47;12.60;92.70
50013;DHT22;35901;48.694;9.476;2022-09-20T16:00:16;12.70;92.70
50013;DHT22;35901;48.694;9.476;2022-09-20T16:02:47;12.70;92.60
50013;DHT22;35901;48.694;9.476;2022-09-20T16:05:13;12.70;92.40
50013;DHT22;35901;48.694;9.476;2022-09-20T16:07:39;12.70;92.30
50013;DHT22;35901;48.694;9.476;2022-09-20T16:10:05;12.60;92.20
50013;DHT22;35901;48.694;9.476;2022-09-20T16:12:31;12.60;92.00
50013;DHT22;35901;48.694;9.476;2022-09-20T16:14:57;12.60;92.20
50013;DHT22;35901;48.694;9.476;2022-09-20T16:17:22;12.60;92.00
50013;DHT22;35901;48.694;9.476;2022-09-20T16:20:08;12.60;92.10
50013;DHT22;35901;48.694;9.476;2022-09-20T16:22:34;12.50;92.00
50013;DHT22;35901;48.694;9.476;2022-09-20T16:25:00;12.50;92.30
50013;DHT22;35901;48.694;9.476;2022-09-20T16:27:28;12.60;92.40
50013;DHT22;35901;48.694;9.476;2022-09-20T16:29:56;12.70;92.30
50013;DHT22;35901;48.694;9.476;2022-09-20T16:32:21;12.70;92.10
50013;DHT22;35901;48.694;9.476;2022-09-20T16:34:47;12.70;91.60
50013;DHT22;35901;48.694;9.476;2022-09-20T16:37:14;12.60;91.40
50013;DHT22;35901;48.694;9.476;2022-09-20T16:39:41;12.50;91.60
50013;DHT22;35901;48.694;9.476;2022-09-20T16:42:07;12.40;91.60
50013;DHT22;35901;48.694;9.476;2022-09-20T16:44:37;12.20;91.70
50013;DHT22;35901;48.694;9.476;2022-09-20T16:47:05;12.00;92.00
50013;DHT22;35901;48.694;9.476;2022-09-20T16:49:35;11.80;92.60
50013;DHT22;35901;48.694;9.476;2022-09-20T16:52:03;11.70;92.30
50013;DHT22;35901;48.694;9.476;2022-09-20T16:54:29;11.50;92.60
50013;DHT22;35901;48.694;9.476;2022-09-20T16:56:55;11.30;92.70
50013;DHT22;35901;48.694;9.476;2022-09-20T16:59:20;11.20;92.80
50013;DHT22;35901;48.694;9.476;2022-09-20T17:01:47;11.00;93.00
50013;DHT22;35901;48.694;9.476;2022-09-20T17:04:14;10.80;93.40
50013;DHT22;35901;48.694;9.476;2022-09-20T17:06:42;10.70;93.50
50013;DHT22;35901;48.694;9.476;2022-09-20T17:09:08;10.50;93.70
50013;DHT22;35901;48.694;9.476;2022-09-20T17:11:40;10.40;94.20
50013;DHT22;35901;48.694;9.476;2022-09-20T17:14:06;10.20;94.60
50013;DHT22;35901;48.694;9.476;2022-09-20T17:16:36;10.00;94.90
50013;DHT22;35901;48.694;9.476;2022-09-20T17:19:04;9.90;95.50
50013;DHT22;35901;48.694;9.476;2022-09-20T17:21:32;9.50;95.50
50013;DHT22;35901;48.694;9.476;2022-09-20T17:24:00;9.10;96.80
50013;DHT22;35901;48.694;9.476;2022-09-20T17:26:31;8.90;97.30
50013;DHT22;35901;48.694;9.476;2022-09-20T17:29:02;8.80;97.90
50013;DHT22;35901;48.694;9.476;2022-09-20T17:31:30;8.70;97.80
50013;DHT22;35901;48.694;9.476;2022-09-20T17:33:58;8.60;97.90
50013;DHT22;35901;48.694;9.476;2022-09-20T17:36:27;8.50;98.10
50013;DHT22;35901;48.694;9.476;2022-09-20T17:38:55;8.50;99.90
50013;DHT22;35901;48.694;9.476;2022-09-20T17:41:21;8.40;99.90
50013;DHT22;35901;48.694;9.476;2022-09-20T17:43:51;8.40;99.90
50013;DHT22;35901;48.694;9.476;2022-09-20T17:46:25;8.30;99.90
50013;DHT22;35901;48.694;9.476;2022-09-20T17:48:57;8.30;99.90
50013;DHT22;35901;48.694;9.476;2022-09-20T17:51:29;8.20;99.90
50013;DHT22;35901;48.694;9.476;2022-09-20T17:53:56;8.10;99.90
50013;DHT22;35901;48.694;9.476;2022-09-20T17:56:22;8.10;99.90
50013;DHT22;35901;48.694;9.476;2022-09-20T17:58:49;8.00;99.90
50013;DHT22;35901;48.694;9.476;2022-09-20T18:01:17;7.90;99.90
50013;DHT22;35901;48.694;9.476;2022-09-20T18:03:46;7.80;99.90
50013;DHT22;35901;48.694;9.476;2022-09-20T18:06:32;7.80;99.90
50013;DHT22;35901;48.694;9.476;2022-09-20T18:09:02;7.70;99.90
50013;DHT22;35901;48.694;9.476;2022-09-20T18:11:34;7.60;99.90
50013;DHT22;35901;48.694;9.476;2022-09-20T18:14:01;7.50;99.90
50013;DHT22;35901;48.694;9.476;2022-09-20T18:16:28;7.40;99.90
50013;DHT22;35901;48.694;9.476;2022-09-20T18:18:55;7.30;99.90
50013;DHT22;35901;48.694;9.476;2022-09-20T18:21:24;7.20;99.90
50013;DHT22;35901;48.694;9.476;2022-09-20T18:23:51;7.10;99.90
50013;DHT22;35901;48.694;9.476;2022-09-20T18:26:18;7.00;99.90
50013;DHT22;35901;48.694;9.476;2022-09-20T18:28:55;7.00;99.90
50013;DHT22;35901;48.694;9.476;2022-09-20T18:31:22;6.90;99.90
50013;DHT22;35901;48.694;9.476;2022-09-20T18:33:51;6.80;99.90
50013;DHT22;35901;48.694;9.476;2022-09-20T18:36:17;6.80;99.90
50013;DHT22;35901;48.694;9.476;2022-09-20T18:38:44;6.70;99.90
50013;DHT22;35901;48.694;9.476;2022-09-20T18:41:10;6.70;99.90
50013;DHT22;35901;48.694;9.476;2022-09-20T18:43:38;6.70;99.90
50013;DHT22;35901;48.694;9.476;2022-09-20T18:46:09;6.70;99.90
50013;DHT22;35901;48.694;9.476;2022-09-20T18:48:35;6.70;99.90
50013;DHT22;35901;48.694;9.476;2022-09-20T18:51:05;6.70;99.90
50013;DHT22;35901;48.694;9.476;2022-09-20T18:53:34;6.70;99.90
50013;DHT22;35901;48.694;9.476;2022-09-20T18:58:42;6.60;99.90
50013;DHT22;35901;48.694;9.476;2022-09-20T19:04:23;6.60;99.90
50013;DHT22;35901;48.694;9.476;2022-09-20T19:12:20;6.50;99.90
50013;DHT22;35901;48.694;9.476;2022-09-20T19:23:30;6.40;99.90
50013;DHT22;35901;48.694;9.476;2022-09-20T19:28:42;6.20;99.90
50013;DHT22;35901;48.694;9.476;2022-09-20T19:31:22;6.10;99.90
50013;DHT22;35901;48.694;9.476;2022-09-20T19:33:49;6.10;99.90
50013;DHT22;35901;48.694;9.476;2022-09-20T19:36:16;6.10;99.90
50013;DHT22;35901;48.694;9.476;2022-09-20T19:38:46;6.10;99.90
50013;DHT22;35901;48.694;9.476;2022-09-20T19:41:55;6.00;99.90
50013;DHT22;35901;48.694;9.476;2022-09-20T19:44:47;5.90;99.90
50013;DHT22;35901;48.694;9.476;2022-09-20T19:52:53;5.50;99.90
50013;DHT22;35901;48.694;9.476;2022-09-20T19:55:23;5.60;99.90
50013;DHT22;35901;48.694;9.476;2022-09-20T19:57:50;5.60;99.90
50013;DHT22;35901;48.694;9.476;2022-09-20T20:00:18;5.60;99.90
50013;DHT22;35901;48.694;9.476;2022-09-20T20:03:06;5.60;99.90
50013;DHT22;35901;48.694;9.476;2022-09-20T20:05:32;5.60;99.90
50013;DHT22;35901;48.694;9.476;2022-09-20T20:08:21;5.50;99.90
50013;DHT22;35901;48.694;9.476;2022-09-20T20:14:28;5.40;99.90
50013;DHT22;35901;48.694;9.476;2022-09-20T20:20:22;5.40;99.90
50013;DHT22;35901;48.694;9.476;2022-09-20T20:26:23;5.40;99.90
50013;DHT22;35901;48.694;9.476;2022-09-20T20:28:50;5.30;99.90
50013;DHT22;35901;48.694;9.476;2022-09-20T20:31:19;5.30;99.90
50013;DHT22;35901;48.694;9.476;2022-09-20T20:33:45;5.40;99.90
50013;DHT22;35901;48.694;9.476;2022-09-20T20:36:11;5.40;99.90
50013;DHT22;35901;48.694;9.476;2022-09-20T20:38:40;5.40;99.90
50013;DHT22;35901;48.694;9.476;2022-09-20T20:41:12;5.30;99.90
50013;DHT22;35901;48.694;9.476;2022-09-20T20:43:41;5.30;99.90
50013;DHT22;35901;48.694;9.476;2022-09-20T20:46:12;5.30;99.90
50013;DHT22;35901;48.694;9.476;2022-09-20T20:48:40;5.20;99.90
50013;DHT22;35901;48.694;9.476;2022-09-20T20:51:24;5.20;99.90
50013;DHT22;35901;48.694;9.476;2022-09-20T20:53:52;5.20;99.90
50013;DHT22;35901;48.694;9.476;2022-09-20T20:56:19;5.20;99.90
50013;DHT22;35901;48.694;9.476;2022-09-20T20:58:47;5.20;99.90
50013;DHT22;35901;48.694;9.476;2022-09-20T21:01:18;5.20;99.90
50013;DHT22;35901;48.694;9.476;2022-09-20T21:03:49;5.10;99.90
50013;DHT22;35901;48.694;9.476;2022-09-20T21:06:25;5.10;99.90
50013;DHT22;35901;48.694;9.476;2022-09-20T21:08:54;5.00;99.90
50013;DHT22;35901;48.694;9.476;2022-09-20T21:11:29;5.00;99.90
50013;DHT22;35901;48.694;9.476;2022-09-20T21:13:57;5.00;99.90
50013;DHT22;35901;48.694;9.476;2022-09-20T21:16:25;5.00;99.90
50013;DHT22;35901;48.694;9.476;2022-09-20T21:18:51;5.00;99.90
50013;DHT22;35901;48.694;9.476;2022-09-20T21:21:28;4.90;99.90
50013;DHT22;35901;48.694;9.476;2022-09-20T21:24:01;4.80;99.90
50013;DHT22;35901;48.694;9.476;2022-09-20T21:26:30;4.80;99.90
50013;DHT22;35901;48.694;9.476;2022-09-20T21:28:59;4.70;99.90
50013;DHT22;35901;48.694;9.476;2022-09-20T21:31:32;4.70;99.90
50013;DHT22;35901;48.694;9.476;2022-09-20T21:34:06;4.60;99.90
50013;DHT22;35901;48.694;9.476;2022-09-20T21:36:43;4.60;99.90
50013;DHT22;35901;48.694;9.476;2022-09-20T21:39:10;4.50;99.90
50013;DHT22;35901;48.694;9.476;2022-09-20T21:41:37;4.50;99.90
50013;DHT22;35901;48.694;9.476;2022-09-20T21:44:03;4.50;99.90
50013;DHT22;35901;48.694;9.476;2022-09-20T21:49:03;4.40;99.90
50013;DHT22;35901;48.694;9.476;2022-09-20T21:51:51;4.40;99.90
50013;DHT22;35901;48.694;9.476;2022-09-20T21:54:18;4.30;99.90
50013;DHT22;35901;48.694;9.476;2022-09-20T21:56:44;4.20;99.90